sensor_id;sensor_type;location;lat;lon;timestamp;P1;durP1;ratioP1;P2;durP2;ratioP2
7575;SDS011;3829;50.798;4.358;2023-08-21T00:00:43;5.60;;;1.60;;
7575;SDS011;3829;50.798;4.358;2023-08-21T00:03:09;6.83;;;1.63;;
7575;SDS011;3829;50.798;4.358;2023-08-21T00:05:34;5.73;;;1.73;;
7575;SDS011;3829;50.798;4.358;2023-08-21T00:08:00;4.93;;;1.93;;
7575;SDS011;3829;50.798;4.358;2023-08-21T00:10:25;7.10;;;1.93;;
7575;SDS011;3829;50.798;4.358;2023-08-21T00:12:51;3.83;;;1.53;;
7575;SDS011;3829;50.798;4.358;2023-08-21T00:15:17;4.10;;;1.60;;
7575;SDS011;3829;50.798;4.358;2023-08-21T00:17:42;4.80;;;2.00;;
7575;SDS011;3829;50.798;4.358;2023-08-21T00:20:08;7.67;;;1.90;;
7575;SDS011;3829;50.798;4.358;2023-08-21T00:22:35;7.07;;;1.60;;
7575;SDS011;3829;50.798;4.358;2023-08-21T00:25:01;8.10;;;1.80;;
7575;SDS011;3829;50.798;4.358;2023-08-21T00:27:27;6.97;;;1.70;;
7575;SDS011;3829;50.798;4.358;2023-08-21T00:29:52;7.30;;;1.80;;
7575;SDS011;3829;50.798;4.358;2023-08-21T00:32:18;8.10;;;1.90;;
7575;SDS011;3829;50.798;4.358;2023-08-21T00:34:43;4.03;;;1.67;;
7575;SDS011;3829;50.798;4.358;2023-08-21T00:37:09;9.20;;;1.97;;
7575;SDS011;3829;50.798;4.358;2023-08-21T00:39:36;5.00;;;1.70;;
7575;SDS011;3829;50.798;4.358;2023-08-21T00:42:01;5.40;;;1.80;;
7575;SDS011;3829;50.798;4.358;2023-08-21T00:44:27;3.50;;;1.43;;
7575;SDS011;3829;50.798;4.358;2023-08-21T00:46:52;6.77;;;1.80;;
7575;SDS011;3829;50.798;4.358;2023-08-21T00:49:18;4.50;;;1.73;;
7575;SDS011;3829;50.798;4.358;2023-08-21T00:51:44;8.23;;;1.80;;
7575;SDS011;3829;50.798;4.358;2023-08-21T00:54:10;3.63;;;1.87;;
7575;SDS011;3829;50.798;4.358;2023-08-21T00:56:36;4.50;;;1.50;;
7575;SDS011;3829;50.798;4.358;2023-08-21T00:59:02;8.20;;;1.90;;
7575;SDS011;3829;50.798;4.358;2023-08-21T01:01:27;5.67;;;1.83;;
7575;SDS011;3829;50.798;4.358;2023-08-21T01:03:53;7.43;;;2.03;;
7575;SDS011;3829;50.798;4.358;2023-08-21T01:06:19;5.00;;;1.50;;
7575;SDS011;3829;50.798;4.358;2023-08-21T01:11:26;4.23;;;1.60;;
7575;SDS011;3829;50.798;4.358;2023-08-21T01:14:03;6.50;;;2.40;;
7575;SDS011;3829;50.798;4.358;2023-08-21T01:16:38;4.97;;;1.87;;
7575;SDS011;3829;50.798;4.358;2023-08-21T01:19:08;6.67;;;1.90;;
7575;SDS011;3829;50.798;4.358;2023-08-21T01:21:40;4.67;;;2.00;;
7575;SDS011;3829;50.798;4.358;2023-08-21T01:24:06;8.67;;;1.97;;
7575;SDS011;3829;50.798;4.358;2023-08-21T01:26:31;7.97;;;2.43;;
7575;SDS011;3829;50.798;4.358;2023-08-21T01:28:57;6.40;;;2.10;;
7575;SDS011;3829;50.798;4.358;2023-08-21T01:31:24;5.73;;;2.40;;
7575;SDS011;3829;50.798;4.358;2023-08-21T01:33:55;7.13;;;2.27;;
7575;SDS011;3829;50.798;4.358;2023-08-21T01:36:24;10.27;;;2.13;;
7575;SDS011;3829;50.798;4.358;2023-08-21T01:38:50;9.03;;;2.20;;
7575;SDS011;3829;50.798;4.358;2023-08-21T01:41:17;5.50;;;1.83;;
7575;SDS011;3829;50.798;4.358;2023-08-21T01:43:42;7.30;;;1.90;;
7575;SDS011;3829;50.798;4.358;2023-08-21T01:46:08;5.77;;;1.90;;
7575;SDS011;3829;50.798;4.358;2023-08-21T01:48:34;4.03;;;2.10;;
7575;SDS011;3829;50.798;4.358;2023-08-21T01:51:01;6.77;;;2.40;;
7575;SDS011;3829;50.798;4.358;2023-08-21T01:53:27;6.00;;;2.00;;
7575;SDS011;3829;50.798;4.358;2023-08-21T01:55:53;6.73;;;1.87;;
7575;SDS011;3829;50.798;4.358;2023-08-21T01:58:18;9.10;;;1.87;;
7575;SDS011;3829;50.798;4.358;2023-08-21T02:00:45;6.03;;;1.73;;
7575;SDS011;3829;50.798;4.358;2023-08-21T02:03:12;5.00;;;2.00;;
7575;SDS011;3829;50.798;4.358;2023-08-21T02:05:38;8.10;;;1.83;;
7575;SDS011;3829;50.798;4.358;2023-08-21T02:08:05;4.23;;;2.37;;
7575;SDS011;3829;50.798;4.358;2023-08-21T02:10:31;7.60;;;2.10;;
7575;SDS011;3829;50.798;4.358;2023-08-21T02:12:56;4.57;;;1.80;;
7575;SDS011;3829;50.798;4.358;2023-08-21T02:15:22;11.10;;;2.03;;
7575;SDS011;3829;50.798;4.358;2023-08-21T02:17:48;8.50;;;1.80;;
7575;SDS011;3829;50.798;4.358;2023-08-21T02:20:13;5.70;;;2.03;;
7575;SDS011;3829;50.798;4.358;2023-08-21T02:22:39;6.57;;;2.07;;
7575;SDS011;3829;50.798;4.358;2023-08-21T02:25:04;5.33;;;1.90;;
7575;SDS011;3829;50.798;4.358;2023-08-21T02:27:30;9.57;;;3.30;;
7575;SDS011;3829;50.798;4.358;2023-08-21T02:29:56;3.87;;;2.13;;
7575;SDS011;3829;50.798;4.358;2023-08-21T02:32:21;5.37;;;2.00;;
7575;SDS011;3829;50.798;4.358;2023-08-21T02:34:47;8.23;;;1.87;;
7575;SDS011;3829;50.798;4.358;2023-08-21T02:37:12;4.83;;;2.10;;
7575;SDS011;3829;50.798;4.358;2023-08-21T02:39:38;3.67;;;1.80;;
7575;SDS011;3829;50.798;4.358;2023-08-21T02:42:04;9.57;;;1.93;;
7575;SDS011;3829;50.798;4.358;2023-08-21T02:44:29;8.20;;;1.80;;
7575;SDS011;3829;50.798;4.358;2023-08-21T02:46:55;7.83;;;2.10;;
7575;SDS011;3829;50.798;4.358;2023-08-21T02:49:20;10.23;;;2.43;;
7575;SDS011;3829;50.798;4.358;2023-08-21T02:51:46;6.10;;;1.87;;
7575;SDS011;3829;50.798;4.358;2023-08-21T02:54:11;4.17;;;1.70;;
7575;SDS011;3829;50.798;4.358;2023-08-21T02:56:37;5.30;;;1.67;;
7575;SDS011;3829;50.798;4.358;2023-08-21T02:59:02;6.77;;;1.90;;
7575;SDS011;3829;50.798;4.358;2023-08-21T03:01:28;6.40;;;2.00;;
7575;SDS011;3829;50.798;4.358;2023-08-21T03:03:54;6.60;;;1.80;;
7575;SDS011;3829;50.798;4.358;2023-08-21T03:06:19;10.03;;;2.33;;
7575;SDS011;3829;50.798;4.358;2023-08-21T03:08:45;7.17;;;2.30;;
7575;SDS011;3829;50.798;4.358;2023-08-21T03:11:11;7.20;;;2.23;;
7575;SDS011;3829;50.798;4.358;2023-08-21T03:13:37;8.17;;;1.93;;
7575;SDS011;3829;50.798;4.358;2023-08-21T03:16:03;6.10;;;2.10;;
7575;SDS011;3829;50.798;4.358;2023-08-21T03:18:30;10.37;;;4.27;;
7575;SDS011;3829;50.798;4.358;2023-08-21T03:20:57;8.00;;;2.30;;
7575;SDS011;3829;50.798;4.358;2023-08-21T03:23:22;6.90;;;2.63;;
7575;SDS011;3829;50.798;4.358;2023-08-21T03:25:48;5.30;;;2.40;;
7575;SDS011;3829;50.798;4.358;2023-08-21T03:28:17;7.27;;;2.30;;
7575;SDS011;3829;50.798;4.358;2023-08-21T03:30:42;5.43;;;2.57;;
7575;SDS011;3829;50.798;4.358;2023-08-21T03:33:08;7.10;;;2.50;;
7575;SDS011;3829;50.798;4.358;2023-08-21T03:35:34;8.30;;;2.67;;
7575;SDS011;3829;50.798;4.358;2023-08-21T03:37:59;7.47;;;1.93;;
7575;SDS011;3829;50.798;4.358;2023-08-21T03:40:25;11.37;;;3.67;;
7575;SDS011;3829;50.798;4.358;2023-08-21T03:42:50;6.93;;;2.07;;
7575;SDS011;3829;50.798;4.358;2023-08-21T03:45:16;7.10;;;2.23;;
7575;SDS011;3829;50.798;4.358;2023-08-21T03:47:42;6.90;;;2.10;;
7575;SDS011;3829;50.798;4.358;2023-08-21T03:50:07;6.17;;;2.50;;
7575;SDS011;3829;50.798;4.358;2023-08-21T03:52:33;5.10;;;1.87;;
7575;SDS011;3829;50.798;4.358;2023-08-21T03:54:59;6.07;;;2.07;;
7575;SDS011;3829;50.798;4.358;2023-08-21T03:57:24;9.40;;;2.60;;
7575;SDS011;3829;50.798;4.358;2023-08-21T03:59:50;9.67;;;2.33;;
7575;SDS011;3829;50.798;4.358;2023-08-21T04:02:15;6.90;;;2.30;;
7575;SDS011;3829;50.798;4.358;2023-08-21T04:04:41;9.50;;;2.50;;
7575;SDS011;3829;50.798;4.358;2023-08-21T04:07:06;5.40;;;2.20;;
7575;SDS011;3829;50.798;4.358;2023-08-21T04:09:32;5.80;;;2.20;;
7575;SDS011;3829;50.798;4.358;2023-08-21T04:11:58;10.97;;;3.47;;
7575;SDS011;3829;50.798;4.358;2023-08-21T04:14:23;8.03;;;2.47;;
7575;SDS011;3829;50.798;4.358;2023-08-21T04:16:49;8.17;;;2.30;;
7575;SDS011;3829;50.798;4.358;2023-08-21T04:19:14;9.97;;;2.67;;
7575;SDS011;3829;50.798;4.358;2023-08-21T04:21:40;6.83;;;2.50;;
7575;SDS011;3829;50.798;4.358;2023-08-21T04:24:05;5.70;;;2.37;;
7575;SDS011;3829;50.798;4.358;2023-08-21T04:26:32;6.13;;;2.67;;
7575;SDS011;3829;50.798;4.358;2023-08-21T04:28:57;5.40;;;2.33;;
7575;SDS011;3829;50.798;4.358;2023-08-21T04:31:23;9.20;;;3.37;;
7575;SDS011;3829;50.798;4.358;2023-08-21T04:33:48;4.90;;;1.83;;
7575;SDS011;3829;50.798;4.358;2023-08-21T04:36:15;10.97;;;2.40;;
7575;SDS011;3829;50.798;4.358;2023-08-21T04:38:41;9.97;;;2.03;;
7575;SDS011;3829;50.798;4.358;2023-08-21T04:41:07;7.57;;;2.40;;
7575;SDS011;3829;50.798;4.358;2023-08-21T04:43:33;7.40;;;2.43;;
7575;SDS011;3829;50.798;4.358;2023-08-21T04:45:59;4.67;;;2.00;;
7575;SDS011;3829;50.798;4.358;2023-08-21T04:48:24;13.17;;;3.43;;
7575;SDS011;3829;50.798;4.358;2023-08-21T04:50:50;6.17;;;2.10;;
7575;SDS011;3829;50.798;4.358;2023-08-21T04:53:16;5.47;;;2.33;;
7575;SDS011;3829;50.798;4.358;2023-08-21T04:55:41;11.63;;;2.50;;
7575;SDS011;3829;50.798;4.358;2023-08-21T04:58:07;8.23;;;2.50;;
7575;SDS011;3829;50.798;4.358;2023-08-21T05:00:34;6.13;;;2.17;;
7575;SDS011;3829;50.798;4.358;2023-08-21T05:03:00;8.30;;;2.43;;
7575;SDS011;3829;50.798;4.358;2023-08-21T05:05:26;5.20;;;2.00;;
7575;SDS011;3829;50.798;4.358;2023-08-21T05:07:52;9.47;;;2.70;;
7575;SDS011;3829;50.798;4.358;2023-08-21T05:10:18;6.67;;;2.40;;
7575;SDS011;3829;50.798;4.358;2023-08-21T05:12:44;5.93;;;2.20;;
7575;SDS011;3829;50.798;4.358;2023-08-21T05:15:10;8.03;;;2.17;;
7575;SDS011;3829;50.798;4.358;2023-08-21T05:17:36;4.80;;;1.70;;
7575;SDS011;3829;50.798;4.358;2023-08-21T05:20:01;8.00;;;2.20;;
7575;SDS011;3829;50.798;4.358;2023-08-21T05:22:28;9.13;;;1.80;;
7575;SDS011;3829;50.798;4.358;2023-08-21T05:24:53;5.97;;;2.10;;
7575;SDS011;3829;50.798;4.358;2023-08-21T05:27:19;9.33;;;2.27;;
7575;SDS011;3829;50.798;4.358;2023-08-21T05:29:44;5.43;;;2.33;;
7575;SDS011;3829;50.798;4.358;2023-08-21T05:32:10;9.77;;;3.33;;
7575;SDS011;3829;50.798;4.358;2023-08-21T05:34:36;8.60;;;2.20;;
7575;SDS011;3829;50.798;4.358;2023-08-21T05:37:02;8.13;;;3.00;;
7575;SDS011;3829;50.798;4.358;2023-08-21T05:39:27;7.73;;;2.83;;
7575;SDS011;3829;50.798;4.358;2023-08-21T05:41:53;11.77;;;2.30;;
7575;SDS011;3829;50.798;4.358;2023-08-21T05:44:19;10.40;;;2.40;;
7575;SDS011;3829;50.798;4.358;2023-08-21T05:46:45;10.57;;;2.10;;
7575;SDS011;3829;50.798;4.358;2023-08-21T05:49:11;6.77;;;2.90;;
7575;SDS011;3829;50.798;4.358;2023-08-21T05:51:36;9.27;;;2.53;;
7575;SDS011;3829;50.798;4.358;2023-08-21T05:54:02;8.27;;;3.20;;
7575;SDS011;3829;50.798;4.358;2023-08-21T05:56:28;6.20;;;2.37;;
7575;SDS011;3829;50.798;4.358;2023-08-21T05:58:53;10.67;;;3.20;;
7575;SDS011;3829;50.798;4.358;2023-08-21T06:01:19;11.93;;;2.80;;
7575;SDS011;3829;50.798;4.358;2023-08-21T06:03:44;8.07;;;2.87;;
7575;SDS011;3829;50.798;4.358;2023-08-21T06:06:10;11.30;;;2.60;;
7575;SDS011;3829;50.798;4.358;2023-08-21T06:08:36;8.37;;;2.73;;
7575;SDS011;3829;50.798;4.358;2023-08-21T06:11:01;9.43;;;2.60;;
7575;SDS011;3829;50.798;4.358;2023-08-21T06:13:27;11.90;;;3.30;;
7575;SDS011;3829;50.798;4.358;2023-08-21T06:15:53;6.37;;;2.77;;
7575;SDS011;3829;50.798;4.358;2023-08-21T06:18:19;14.93;;;3.23;;
7575;SDS011;3829;50.798;4.358;2023-08-21T06:20:45;9.70;;;3.07;;
7575;SDS011;3829;50.798;4.358;2023-08-21T06:23:11;10.67;;;3.00;;
7575;SDS011;3829;50.798;4.358;2023-08-21T06:25:37;13.77;;;3.37;;
7575;SDS011;3829;50.798;4.358;2023-08-21T06:28:03;8.17;;;2.53;;
7575;SDS011;3829;50.798;4.358;2023-08-21T06:30:29;10.60;;;2.97;;
7575;SDS011;3829;50.798;4.358;2023-08-21T06:32:55;13.87;;;3.60;;
7575;SDS011;3829;50.798;4.358;2023-08-21T06:35:21;7.23;;;2.87;;
7575;SDS011;3829;50.798;4.358;2023-08-21T06:37:46;12.03;;;3.10;;
7575;SDS011;3829;50.798;4.358;2023-08-21T06:40:12;16.03;;;3.63;;
7575;SDS011;3829;50.798;4.358;2023-08-21T06:42:38;12.63;;;3.13;;
7575;SDS011;3829;50.798;4.358;2023-08-21T06:45:04;9.50;;;2.90;;
7575;SDS011;3829;50.798;4.358;2023-08-21T06:47:30;12.03;;;2.87;;
7575;SDS011;3829;50.798;4.358;2023-08-21T06:49:56;9.93;;;2.90;;
7575;SDS011;3829;50.798;4.358;2023-08-21T06:52:22;10.70;;;3.17;;
7575;SDS011;3829;50.798;4.358;2023-08-21T06:54:48;19.73;;;4.57;;
7575;SDS011;3829;50.798;4.358;2023-08-21T06:57:13;15.07;;;3.67;;
7575;SDS011;3829;50.798;4.358;2023-08-21T06:59:39;13.87;;;3.03;;
7575;SDS011;3829;50.798;4.358;2023-08-21T07:02:05;16.37;;;3.37;;
7575;SDS011;3829;50.798;4.358;2023-08-21T07:04:31;14.37;;;3.90;;
7575;SDS011;3829;50.798;4.358;2023-08-21T07:06:58;12.90;;;3.40;;
7575;SDS011;3829;50.798;4.358;2023-08-21T07:09:23;19.60;;;4.47;;
7575;SDS011;3829;50.798;4.358;2023-08-21T07:11:49;20.37;;;3.87;;
7575;SDS011;3829;50.798;4.358;2023-08-21T07:14:14;11.60;;;3.50;;
7575;SDS011;3829;50.798;4.358;2023-08-21T07:16:41;16.97;;;4.00;;
7575;SDS011;3829;50.798;4.358;2023-08-21T07:19:07;15.80;;;3.57;;
7575;SDS011;3829;50.798;4.358;2023-08-21T07:21:33;10.70;;;3.60;;
7575;SDS011;3829;50.798;4.358;2023-08-21T07:24:02;14.50;;;3.73;;
7575;SDS011;3829;50.798;4.358;2023-08-21T07:26:28;12.30;;;3.37;;
7575;SDS011;3829;50.798;4.358;2023-08-21T07:28:54;8.23;;;3.30;;
7575;SDS011;3829;50.798;4.358;2023-08-21T07:31:19;12.33;;;3.53;;
7575;SDS011;3829;50.798;4.358;2023-08-21T07:33:45;10.20;;;3.50;;
7575;SDS011;3829;50.798;4.358;2023-08-21T07:36:10;9.97;;;3.27;;
7575;SDS011;3829;50.798;4.358;2023-08-21T07:38:41;10.47;;;3.57;;
7575;SDS011;3829;50.798;4.358;2023-08-21T07:41:08;11.07;;;3.53;;
7575;SDS011;3829;50.798;4.358;2023-08-21T07:43:35;15.63;;;3.80;;
7575;SDS011;3829;50.798;4.358;2023-08-21T07:46:03;18.47;;;3.87;;
7575;SDS011;3829;50.798;4.358;2023-08-21T07:48:29;8.90;;;3.33;;
7575;SDS011;3829;50.798;4.358;2023-08-21T07:50:55;11.97;;;3.33;;
7575;SDS011;3829;50.798;4.358;2023-08-21T07:53:21;10.97;;;3.60;;
7575;SDS011;3829;50.798;4.358;2023-08-21T07:55:47;7.37;;;3.60;;
7575;SDS011;3829;50.798;4.358;2023-08-21T07:58:13;14.07;;;3.70;;
7575;SDS011;3829;50.798;4.358;2023-08-21T08:00:38;14.57;;;4.10;;
7575;SDS011;3829;50.798;4.358;2023-08-21T08:03:04;12.03;;;3.47;;
7575;SDS011;3829;50.798;4.358;2023-08-21T08:05:30;12.87;;;4.00;;
7575;SDS011;3829;50.798;4.358;2023-08-21T08:07:56;11.10;;;3.77;;
7575;SDS011;3829;50.798;4.358;2023-08-21T08:10:23;13.10;;;3.40;;
7575;SDS011;3829;50.798;4.358;2023-08-21T08:12:49;7.63;;;3.23;;
7575;SDS011;3829;50.798;4.358;2023-08-21T08:15:15;9.17;;;3.43;;
7575;SDS011;3829;50.798;4.358;2023-08-21T08:17:41;11.10;;;3.73;;
7575;SDS011;3829;50.798;4.358;2023-08-21T08:20:06;11.27;;;3.50;;
7575;SDS011;3829;50.798;4.358;2023-08-21T08:22:32;14.83;;;3.67;;
7575;SDS011;3829;50.798;4.358;2023-08-21T08:24:58;14.87;;;3.73;;
7575;SDS011;3829;50.798;4.358;2023-08-21T08:27:23;12.67;;;4.60;;
7575;SDS011;3829;50.798;4.358;2023-08-21T08:29:49;12.70;;;3.53;;
7575;SDS011;3829;50.798;4.358;2023-08-21T08:32:15;13.93;;;4.00;;
7575;SDS011;3829;50.798;4.358;2023-08-21T08:34:40;16.23;;;3.87;;
7575;SDS011;3829;50.798;4.358;2023-08-21T08:37:06;12.03;;;3.70;;
7575;SDS011;3829;50.798;4.358;2023-08-21T08:39:31;9.47;;;3.90;;
7575;SDS011;3829;50.798;4.358;2023-08-21T08:41:58;11.80;;;4.10;;
7575;SDS011;3829;50.798;4.358;2023-08-21T08:44:28;18.80;;;3.97;;
7575;SDS011;3829;50.798;4.358;2023-08-21T08:46:55;8.40;;;4.00;;
7575;SDS011;3829;50.798;4.358;2023-08-21T08:49:21;10.60;;;3.63;;
7575;SDS011;3829;50.798;4.358;2023-08-21T08:51:49;16.00;;;4.37;;
7575;SDS011;3829;50.798;4.358;2023-08-21T08:54:17;8.27;;;3.90;;
7575;SDS011;3829;50.798;4.358;2023-08-21T08:56:44;13.90;;;3.80;;
7575;SDS011;3829;50.798;4.358;2023-08-21T08:59:10;9.87;;;3.77;;
7575;SDS011;3829;50.798;4.358;2023-08-21T09:01:36;10.03;;;3.77;;
7575;SDS011;3829;50.798;4.358;2023-08-21T09:04:02;11.33;;;4.13;;
7575;SDS011;3829;50.798;4.358;2023-08-21T09:06:28;10.50;;;4.70;;
7575;SDS011;3829;50.798;4.358;2023-08-21T09:08:54;12.40;;;3.97;;
7575;SDS011;3829;50.798;4.358;2023-08-21T09:11:20;6.10;;;2.53;;
7575;SDS011;3829;50.798;4.358;2023-08-21T09:13:48;7.40;;;2.77;;
7575;SDS011;3829;50.798;4.358;2023-08-21T09:16:14;14.03;;;3.13;;
7575;SDS011;3829;50.798;4.358;2023-08-21T09:21:19;7.00;;;2.60;;
7575;SDS011;3829;50.798;4.358;2023-08-21T09:23:45;9.33;;;2.73;;
7575;SDS011;3829;50.798;4.358;2023-08-21T09:26:11;5.00;;;2.53;;
7575;SDS011;3829;50.798;4.358;2023-08-21T09:28:45;6.93;;;2.40;;
7575;SDS011;3829;50.798;4.358;2023-08-21T09:31:11;7.23;;;2.20;;
7575;SDS011;3829;50.798;4.358;2023-08-21T09:33:36;8.80;;;2.73;;
7575;SDS011;3829;50.798;4.358;2023-08-21T09:36:03;6.47;;;2.40;;
7575;SDS011;3829;50.798;4.358;2023-08-21T09:38:29;8.73;;;2.60;;
7575;SDS011;3829;50.798;4.358;2023-08-21T09:40:55;10.17;;;2.50;;
7575;SDS011;3829;50.798;4.358;2023-08-21T09:43:23;5.13;;;2.27;;
7575;SDS011;3829;50.798;4.358;2023-08-21T09:45:51;15.17;;;2.40;;
7575;SDS011;3829;50.798;4.358;2023-08-21T09:48:21;10.10;;;2.60;;
7575;SDS011;3829;50.798;4.358;2023-08-21T09:50:48;6.53;;;2.70;;
7575;SDS011;3829;50.798;4.358;2023-08-21T09:53:15;6.60;;;2.20;;
7575;SDS011;3829;50.798;4.358;2023-08-21T09:55:41;6.47;;;2.40;;
7575;SDS011;3829;50.798;4.358;2023-08-21T09:58:07;7.90;;;2.73;;
7575;SDS011;3829;50.798;4.358;2023-08-21T10:00:35;7.40;;;2.50;;
7575;SDS011;3829;50.798;4.358;2023-08-21T10:03:06;5.83;;;2.00;;
7575;SDS011;3829;50.798;4.358;2023-08-21T10:05:36;4.77;;;1.70;;
7575;SDS011;3829;50.798;4.358;2023-08-21T10:08:04;5.50;;;2.10;;
7575;SDS011;3829;50.798;4.358;2023-08-21T10:10:31;4.80;;;2.03;;
7575;SDS011;3829;50.798;4.358;2023-08-21T10:12:59;7.00;;;2.47;;
7575;SDS011;3829;50.798;4.358;2023-08-21T10:15:25;8.83;;;2.27;;
7575;SDS011;3829;50.798;4.358;2023-08-21T10:17:52;6.17;;;2.03;;
7575;SDS011;3829;50.798;4.358;2023-08-21T10:20:22;6.33;;;2.00;;
7575;SDS011;3829;50.798;4.358;2023-08-21T10:22:52;8.50;;;2.60;;
7575;SDS011;3829;50.798;4.358;2023-08-21T10:25:21;11.60;;;2.70;;
7575;SDS011;3829;50.798;4.358;2023-08-21T10:27:50;12.93;;;3.33;;
7575;SDS011;3829;50.798;4.358;2023-08-21T10:30:25;6.53;;;2.13;;
7575;SDS011;3829;50.798;4.358;2023-08-21T10:32:52;6.87;;;1.77;;
7575;SDS011;3829;50.798;4.358;2023-08-21T10:35:21;4.27;;;1.60;;
7575;SDS011;3829;50.798;4.358;2023-08-21T10:40:34;4.93;;;1.43;;
7575;SDS011;3829;50.798;4.358;2023-08-21T10:43:00;3.50;;;1.40;;
7575;SDS011;3829;50.798;4.358;2023-08-21T10:45:27;3.10;;;1.30;;
7575;SDS011;3829;50.798;4.358;2023-08-21T10:47:56;4.90;;;1.67;;
7575;SDS011;3829;50.798;4.358;2023-08-21T10:50:24;4.30;;;1.37;;
7575;SDS011;3829;50.798;4.358;2023-08-21T10:52:50;3.47;;;1.30;;
7575;SDS011;3829;50.798;4.358;2023-08-21T10:55:17;5.53;;;1.70;;
7575;SDS011;3829;50.798;4.358;2023-08-21T10:57:45;5.37;;;1.40;;
7575;SDS011;3829;50.798;4.358;2023-08-21T11:00:12;8.20;;;1.50;;
7575;SDS011;3829;50.798;4.358;2023-08-21T11:02:41;3.87;;;1.93;;
7575;SDS011;3829;50.798;4.358;2023-08-21T11:05:08;1.57;;;1.10;;
7575;SDS011;3829;50.798;4.358;2023-08-21T11:07:36;6.60;;;1.27;;
7575;SDS011;3829;50.798;4.358;2023-08-21T11:10:04;2.87;;;1.53;;
7575;SDS011;3829;50.798;4.358;2023-08-21T11:12:32;3.43;;;1.50;;
7575;SDS011;3829;50.798;4.358;2023-08-21T11:14:58;3.57;;;1.40;;
7575;SDS011;3829;50.798;4.358;2023-08-21T11:17:23;6.03;;;2.00;;
7575;SDS011;3829;50.798;4.358;2023-08-21T11:19:49;3.87;;;1.50;;
7575;SDS011;3829;50.798;4.358;2023-08-21T11:22:15;2.77;;;1.10;;
7575;SDS011;3829;50.798;4.358;2023-08-21T11:24:42;4.70;;;1.53;;
7575;SDS011;3829;50.798;4.358;2023-08-21T11:27:11;7.17;;;1.77;;
7575;SDS011;3829;50.798;4.358;2023-08-21T11:29:40;6.27;;;1.40;;
7575;SDS011;3829;50.798;4.358;2023-08-21T11:32:09;5.87;;;1.57;;
7575;SDS011;3829;50.798;4.358;2023-08-21T11:34:36;3.90;;;1.70;;
7575;SDS011;3829;50.798;4.358;2023-08-21T11:37:02;2.57;;;1.60;;
7575;SDS011;3829;50.798;4.358;2023-08-21T11:39:38;3.47;;;1.40;;
7575;SDS011;3829;50.798;4.358;2023-08-21T11:42:08;4.33;;;1.50;;
7575;SDS011;3829;50.798;4.358;2023-08-21T11:44:39;5.10;;;1.30;;
7575;SDS011;3829;50.798;4.358;2023-08-21T11:47:05;4.40;;;1.33;;
7575;SDS011;3829;50.798;4.358;2023-08-21T11:49:31;5.87;;;1.73;;
7575;SDS011;3829;50.798;4.358;2023-08-21T11:51:57;4.70;;;1.67;;
7575;SDS011;3829;50.798;4.358;2023-08-21T11:54:22;5.23;;;1.80;;
7575;SDS011;3829;50.798;4.358;2023-08-21T11:56:48;4.37;;;1.67;;
7575;SDS011;3829;50.798;4.358;2023-08-21T11:59:22;3.70;;;1.50;;
7575;SDS011;3829;50.798;4.358;2023-08-21T12:01:49;5.43;;;1.80;;
7575;SDS011;3829;50.798;4.358;2023-08-21T12:04:15;3.63;;;1.90;;
7575;SDS011;3829;50.798;4.358;2023-08-21T12:06:45;3.70;;;1.83;;
7575;SDS011;3829;50.798;4.358;2023-08-21T12:09:10;4.10;;;1.70;;
7575;SDS011;3829;50.798;4.358;2023-08-21T12:11:36;3.33;;;1.50;;
7575;SDS011;3829;50.798;4.358;2023-08-21T12:14:03;5.70;;;1.50;;
7575;SDS011;3829;50.798;4.358;2023-08-21T12:16:29;6.30;;;2.10;;
7575;SDS011;3829;50.798;4.358;2023-08-21T12:18:55;3.57;;;1.83;;
7575;SDS011;3829;50.798;4.358;2023-08-21T12:21:22;2.07;;;1.60;;
7575;SDS011;3829;50.798;4.358;2023-08-21T12:23:48;5.40;;;1.50;;
7575;SDS011;3829;50.798;4.358;2023-08-21T12:26:15;6.53;;;1.50;;
7575;SDS011;3829;50.798;4.358;2023-08-21T12:28:45;6.30;;;1.73;;
7575;SDS011;3829;50.798;4.358;2023-08-21T12:31:13;7.23;;;2.20;;
7575;SDS011;3829;50.798;4.358;2023-08-21T12:33:38;5.53;;;1.73;;
7575;SDS011;3829;50.798;4.358;2023-08-21T12:36:04;6.13;;;1.63;;
7575;SDS011;3829;50.798;4.358;2023-08-21T12:38:30;4.57;;;1.70;;
7575;SDS011;3829;50.798;4.358;2023-08-21T12:40:55;3.70;;;1.60;;
7575;SDS011;3829;50.798;4.358;2023-08-21T12:43:21;7.17;;;1.80;;
7575;SDS011;3829;50.798;4.358;2023-08-21T12:45:46;6.20;;;2.13;;
7575;SDS011;3829;50.798;4.358;2023-08-21T12:48:12;3.13;;;1.53;;
7575;SDS011;3829;50.798;4.358;2023-08-21T12:50:38;2.93;;;1.50;;
7575;SDS011;3829;50.798;4.358;2023-08-21T12:53:04;5.47;;;1.97;;
7575;SDS011;3829;50.798;4.358;2023-08-21T12:55:29;3.77;;;1.73;;
7575;SDS011;3829;50.798;4.358;2023-08-21T12:57:55;3.87;;;1.40;;
7575;SDS011;3829;50.798;4.358;2023-08-21T13:00:22;4.50;;;1.50;;
7575;SDS011;3829;50.798;4.358;2023-08-21T13:02:47;5.83;;;2.00;;
7575;SDS011;3829;50.798;4.358;2023-08-21T13:05:13;5.63;;;2.10;;
7575;SDS011;3829;50.798;4.358;2023-08-21T13:07:40;7.50;;;2.07;;
7575;SDS011;3829;50.798;4.358;2023-08-21T13:10:06;2.97;;;1.77;;
7575;SDS011;3829;50.798;4.358;2023-08-21T13:12:32;6.73;;;1.60;;
7575;SDS011;3829;50.798;4.358;2023-08-21T13:14:58;5.50;;;1.63;;
7575;SDS011;3829;50.798;4.358;2023-08-21T13:17:23;5.33;;;1.70;;
7575;SDS011;3829;50.798;4.358;2023-08-21T13:19:49;2.07;;;1.27;;
7575;SDS011;3829;50.798;4.358;2023-08-21T13:22:16;3.90;;;1.60;;
7575;SDS011;3829;50.798;4.358;2023-08-21T13:24:42;4.87;;;2.03;;
7575;SDS011;3829;50.798;4.358;2023-08-21T13:27:09;3.50;;;1.63;;
7575;SDS011;3829;50.798;4.358;2023-08-21T13:29:34;3.40;;;1.70;;
7575;SDS011;3829;50.798;4.358;2023-08-21T13:32:00;5.60;;;1.67;;
7575;SDS011;3829;50.798;4.358;2023-08-21T13:34:25;5.30;;;1.93;;
7575;SDS011;3829;50.798;4.358;2023-08-21T13:36:51;4.13;;;2.20;;
7575;SDS011;3829;50.798;4.358;2023-08-21T13:39:17;3.60;;;1.50;;
7575;SDS011;3829;50.798;4.358;2023-08-21T13:41:43;4.60;;;1.90;;
7575;SDS011;3829;50.798;4.358;2023-08-21T13:44:08;4.13;;;1.73;;
7575;SDS011;3829;50.798;4.358;2023-08-21T13:46:34;3.47;;;1.20;;
7575;SDS011;3829;50.798;4.358;2023-08-21T13:49:00;4.13;;;1.40;;
7575;SDS011;3829;50.798;4.358;2023-08-21T13:51:25;2.57;;;1.40;;
7575;SDS011;3829;50.798;4.358;2023-08-21T13:53:51;3.07;;;1.50;;
7575;SDS011;3829;50.798;4.358;2023-08-21T13:56:16;4.20;;;1.30;;
7575;SDS011;3829;50.798;4.358;2023-08-21T13:58:42;1.87;;;1.30;;
7575;SDS011;3829;50.798;4.358;2023-08-21T14:01:08;2.40;;;1.30;;
7575;SDS011;3829;50.798;4.358;2023-08-21T14:03:34;1.73;;;1.10;;
7575;SDS011;3829;50.798;4.358;2023-08-21T14:05:59;3.30;;;1.33;;
7575;SDS011;3829;50.798;4.358;2023-08-21T14:08:25;2.47;;;1.30;;
7575;SDS011;3829;50.798;4.358;2023-08-21T14:10:51;3.27;;;1.43;;
7575;SDS011;3829;50.798;4.358;2023-08-21T14:13:16;2.97;;;1.20;;
7575;SDS011;3829;50.798;4.358;2023-08-21T14:15:42;5.37;;;1.47;;
7575;SDS011;3829;50.798;4.358;2023-08-21T14:18:07;4.80;;;1.20;;
7575;SDS011;3829;50.798;4.358;2023-08-21T14:20:33;2.67;;;1.27;;
7575;SDS011;3829;50.798;4.358;2023-08-21T14:22:59;4.87;;;1.03;;
7575;SDS011;3829;50.798;4.358;2023-08-21T14:25:25;1.90;;;1.07;;
7575;SDS011;3829;50.798;4.358;2023-08-21T14:27:50;2.83;;;1.00;;
7575;SDS011;3829;50.798;4.358;2023-08-21T14:30:16;3.43;;;1.20;;
7575;SDS011;3829;50.798;4.358;2023-08-21T14:32:42;1.60;;;1.00;;
7575;SDS011;3829;50.798;4.358;2023-08-21T14:35:07;2.80;;;0.93;;
7575;SDS011;3829;50.798;4.358;2023-08-21T14:37:33;2.40;;;1.00;;
7575;SDS011;3829;50.798;4.358;2023-08-21T14:39:59;1.67;;;0.87;;
7575;SDS011;3829;50.798;4.358;2023-08-21T14:42:25;5.20;;;1.10;;
7575;SDS011;3829;50.798;4.358;2023-08-21T14:44:50;1.93;;;1.00;;
7575;SDS011;3829;50.798;4.358;2023-08-21T14:47:16;4.00;;;1.13;;
7575;SDS011;3829;50.798;4.358;2023-08-21T14:49:42;2.33;;;1.10;;
7575;SDS011;3829;50.798;4.358;2023-08-21T14:52:07;2.03;;;1.00;;
7575;SDS011;3829;50.798;4.358;2023-08-21T14:54:33;1.53;;;1.17;;
7575;SDS011;3829;50.798;4.358;2023-08-21T14:57:01;3.67;;;0.93;;
7575;SDS011;3829;50.798;4.358;2023-08-21T14:59:26;2.07;;;1.10;;
7575;SDS011;3829;50.798;4.358;2023-08-21T15:01:52;3.60;;;1.50;;
7575;SDS011;3829;50.798;4.358;2023-08-21T15:04:20;2.20;;;1.00;;
7575;SDS011;3829;50.798;4.358;2023-08-21T15:06:45;1.57;;;1.10;;
7575;SDS011;3829;50.798;4.358;2023-08-21T15:09:11;2.43;;;0.90;;
7575;SDS011;3829;50.798;4.358;2023-08-21T15:11:38;1.27;;;0.97;;
7575;SDS011;3829;50.798;4.358;2023-08-21T15:14:03;4.73;;;1.20;;